Time;durP1;ratioP1;P1;durP2;ratioP2;P2;SDS_P1;SDS_P2;PMS_P1;PMS_P2;Temp;Humidity;BMP_temperature;BMP_pressure;BME280_temperature;BME280_humidity;BME280_pressure;Samples;Min_cycle;Max_cycle;Signal;HPM_P1;HPM_P2
2022/09/07 00:00:36;;;;;;;;;;;;;;;23.39;61.12;95314.94;5074835;28;20013;-74
2022/09/07 00:03:02;;;;;;;;;;;;;;;23.44;61.23;95314.59;5092340;28;20013;-73
2022/09/07 00:05:27;;;;;;;;;;;;;;;23.50;61.03;95309.56;5092960;28;20008;-74
2022/09/07 00:07:53;;;;;;;;;;;;;;;23.55;61.17;95309.19;5092913;28;20052;-73
2022/09/07 00:10:19;;;;;;;;;;;;;;;23.70;60.96;95324.41;5091967;28;20206;-74
2022/09/07 00:12:44;;;;;;;;;;;;;;;23.69;60.37;95320.09;5092568;28;20001;-73
2022/09/07 00:15:11;;;;;;;;;;;;;;;23.77;60.28;95318.97;5092422;28;20013;-73
2022/09/07 00:17:36;;;;;;;;;;;;;;;23.85;60.22;95320.56;5092224;28;20009;-74
2022/09/07 00:20:03;;;;;;;;;;;;;;;23.87;59.73;95320.16;5092557;28;20018;-74
2022/09/07 00:22:28;;;;;;;;;;;;;;;23.79;59.88;95313.91;5107824;28;20018;-74
2022/09/07 00:24:53;;;;;;;;;;;;;;;23.46;60.56;95314.97;5074009;28;20013;-73
2022/09/07 00:27:18;;;;;;;;;;;;;;;23.73;60.14;95312.75;5074508;28;20009;-73
2022/09/07 00:29:44;;;;;;;;;;;;;;;23.86;59.64;95308.53;5108301;28;20017;-73
2022/09/07 00:32:09;;;;;;;;;;;;;;;24.03;59.45;95308.94;5092305;28;20005;-73
2022/09/07 00:34:35;;;;;;;;;;;;;;;24.19;59.22;95311.28;5092696;28;20060;-73
2022/09/07 00:37:00;;;;;;;;;;;;;;;24.31;58.40;95317.13;5073606;28;20052;-73
2022/09/07 00:39:25;;;;;;;;;;;;;;;24.31;58.25;95311.69;5073447;28;20059;-73
2022/09/07 00:41:50;;;;;;;;;;;;;;;23.92;59.21;95316.28;5072963;28;20070;-74
2022/09/07 00:44:34;;;;;;;;;;;;;;;24.11;58.51;95318.66;5090122;28;20008;-74
2022/09/07 00:47:00;;;;;;;;;;;;;;;24.11;58.14;95324.09;5092216;28;20005;-72
2022/09/07 00:49:25;;;;;;;;;;;;;;;24.27;57.86;95327.22;5073885;28;20017;-72
2022/09/07 00:51:56;;;;;;;;;;;;;;;24.41;57.59;95321.00;5106281;28;20099;-73
2022/09/07 00:54:25;;;;;;;;;;;;;;;24.50;57.39;95318.69;5091503;28;20637;-73
2022/09/07 00:56:51;;;;;;;;;;;;;;;24.52;57.28;95321.81;5091597;28;20013;-74
2022/09/07 00:59:20;;;;;;;;;;;;;;;24.50;57.08;95329.56;5092272;28;20027;-73
2022/09/07 01:01:45;;;;;;;;;;;;;;;24.47;57.17;95329.59;5091018;28;20013;-73
2022/09/07 01:04:10;;;;;;;;;;;;;;;24.49;57.21;95316.38;5073080;28;20012;-72
2022/09/07 01:06:37;;;;;;;;;;;;;;;24.42;57.23;95316.38;5091963;28;20031;-72
2022/09/07 01:09:09;;;;;;;;;;;;;;;24.42;57.38;95319.09;5091817;28;20015;-72
2022/09/07 01:11:34;;;;;;;;;;;;;;;24.33;57.42;95320.22;5091664;28;20017;-73
2022/09/07 01:14:01;;;;;;;;;;;;;;;24.26;57.56;95314.78;5091005;28;20025;-73
2022/09/07 01:16:34;;;;;;;;;;;;;;;24.17;57.55;95308.94;5073801;28;20013;-73
2022/09/07 01:19:08;;;;;;;;;;;;;;;24.06;57.62;95319.03;5106180;28;20020;-73
2022/09/07 01:21:52;;;;;;;;;;;;;;;23.92;57.79;95322.50;5091182;28;20447;-73
2022/09/07 01:24:33;;;;;;;;;;;;;;;23.61;58.83;95324.72;5091058;28;20099;-73
2022/09/07 01:26:58;;;;;;;;;;;;;;;23.04;60.79;95323.69;5090849;28;20469;-73
2022/09/07 01:29:30;;;;;;;;;;;;;;;23.09;60.70;95328.75;5091626;28;20005;-73
2022/09/07 01:31:55;;;;;;;;;;;;;;;23.02;61.16;95326.78;5072648;28;20013;-73
2022/09/07 01:34:22;;;;;;;;;;;;;;;23.36;60.27;95334.69;5090863;28;20099;-73
2022/09/07 01:36:47;;;;;;;;;;;;;;;23.44;59.39;95321.94;5084365;28;20013;-74
2022/09/07 01:39:12;;;;;;;;;;;;;;;23.49;59.42;95324.28;5086501;28;20010;-73
2022/09/07 01:41:43;;;;;;;;;;;;;;;23.57;59.06;95318.50;5064919;28;20680;-73
2022/09/07 01:44:11;;;;;;;;;;;;;;;23.64;58.96;95316.97;5106344;28;20112;-73
2022/09/07 01:46:36;;;;;;;;;;;;;;;23.57;58.83;95315.78;5091170;28;20005;-73
2022/09/07 01:49:07;;;;;;;;;;;;;;;23.66;58.62;95312.75;5090305;28;20020;-73
2022/09/07 01:51:33;;;;;;;;;;;;;;;23.74;58.46;95314.28;5072921;28;20012;-73
2022/09/07 01:54:05;;;;;;;;;;;;;;;23.82;58.07;95321.31;5090323;28;20012;-73
2022/09/07 01:56:33;;;;;;;;;;;;;;;23.84;58.32;95324.41;5090572;28;20005;-73
2022/09/07 01:59:19;;;;;;;;;;;;;;;23.82;58.04;95329.47;5072606;28;20111;-73
2022/09/07 02:01:48;;;;;;;;;;;;;;;23.84;58.25;95332.56;5089281;28;20017;-73
2022/09/07 02:04:16;;;;;;;;;;;;;;;23.87;57.91;95331.03;5090663;28;20027;-73
2022/09/07 02:06:42;;;;;;;;;;;;;;;23.93;57.91;95331.44;5104150;28;20540;-73
2022/09/07 02:09:13;;;;;;;;;;;;;;;23.97;57.08;95334.94;5089921;28;20051;-73
2022/09/07 02:11:43;;;;;;;;;;;;;;;24.02;56.97;95326.41;5104040;28;20389;-73
2022/09/07 02:14:13;;;;;;;;;;;;;;;24.06;56.58;95325.25;5090119;28;20544;-72
2022/09/07 02:16:43;;;;;;;;;;;;;;;24.04;56.32;95333.00;5072166;28;20066;-73
2022/09/07 02:19:12;;;;;;;;;;;;;;;24.08;56.12;95325.63;5072369;28;20013;-73
2022/09/07 02:21:40;;;;;;;;;;;;;;;24.03;55.85;95330.66;5090567;28;20009;-73
2022/09/07 02:24:08;;;;;;;;;;;;;;;23.96;56.18;95325.22;5105508;28;20009;-72
2022/09/07 02:26:36;;;;;;;;;;;;;;;23.91;56.19;95317.47;5071544;28;20024;-73
2022/09/07 02:29:01;;;;;;;;;;;;;;;23.87;56.01;95317.44;5089885;28;20016;-73
2022/09/07 02:31:27;;;;;;;;;;;;;;;23.78;55.94;95314.31;5090430;28;20058;-74
2022/09/07 02:33:52;;;;;;;;;;;;;;;23.75;56.13;95305.00;5089946;28;20058;-72
2022/09/07 02:36:21;;;;;;;;;;;;;;;23.69;56.26;95303.03;5072256;28;20020;-74
2022/09/07 02:38:47;;;;;;;;;;;;;;;23.70;56.13;95305.38;5089668;28;20389;-73
2022/09/07 02:41:34;;;;;;;;;;;;;;;23.68;55.99;95304.97;5089658;28;20013;-73
2022/09/07 02:44:01;;;;;;;;;;;;;;;23.60;56.17;95297.97;5071743;28;20504;-73
2022/09/07 02:46:44;;;;;;;;;;;;;;;23.58;56.17;95302.97;5090650;28;20044;-73
2022/09/07 02:49:25;;;;;;;;;;;;;;;23.51;56.15;95295.59;5072073;28;20105;-72
2022/09/07 02:52:09;;;;;;;;;;;;;;;23.46;56.15;95301.41;5090039;28;20009;-73
2022/09/07 02:54:44;;;;;;;;;;;;;;;23.46;56.28;95297.91;5089918;28;20009;-73
2022/09/07 02:57:16;;;;;;;;;;;;;;;23.41;56.49;95301.75;5101835;28;20008;-73
2022/09/07 02:59:46;;;;;;;;;;;;;;;23.40;56.28;95302.16;5089940;28;20376;-73
2022/09/07 03:02:23;;;;;;;;;;;;;;;23.21;57.12;95301.28;5107165;28;20082;-73
2022/09/07 03:04:54;;;;;;;;;;;;;;;23.38;56.76;95305.22;5076023;28;20024;-73
2022/09/07 03:07:29;;;;;;;;;;;;;;;23.32;56.89;95296.69;5093063;28;20016;-72
2022/09/07 03:09:56;;;;;;;;;;;;;;;23.28;56.95;95289.69;5094072;28;20050;-73
2022/09/07 03:12:22;;;;;;;;;;;;;;;23.39;56.86;95295.16;5092895;28;20004;-72
2022/09/07 03:14:47;;;;;;;;;;;;;;;23.40;56.58;95300.22;5094036;28;20012;-74
2022/09/07 03:17:12;;;;;;;;;;;;;;;23.39;56.82;95300.56;5093591;28;20005;-72
2022/09/07 03:19:38;;;;;;;;;;;;;;;23.17;57.13;95308.63;5093980;28;20014;-73
2022/09/07 03:22:03;;;;;;;;;;;;;;;23.27;56.72;95304.41;5093284;28;20040;-73
2022/09/07 03:24:29;;;;;;;;;;;;;;;23.37;56.87;95311.06;5075338;28;20012;-73
2022/09/07 03:26:54;;;;;;;;;;;;;;;23.43;56.61;95304.88;5075265;28;20013;-73
2022/09/07 03:29:19;;;;;;;;;;;;;;;23.42;56.30;95311.47;5093446;28;20009;-73
2022/09/07 03:31:45;;;;;;;;;;;;;;;23.45;56.29;95304.50;5075653;28;20537;-73
2022/09/07 03:34:11;;;;;;;;;;;;;;;23.41;56.34;95309.91;5093131;28;20512;-72
2022/09/07 03:36:36;;;;;;;;;;;;;;;23.34;56.46;95310.66;5075189;28;20013;-72
2022/09/07 03:39:02;;;;;;;;;;;;;;;23.38;56.49;95310.66;5075210;28;20056;-73
2022/09/07 03:41:27;;;;;;;;;;;;;;;23.32;56.75;95306.75;5093872;28;20044;-73
2022/09/07 03:43:52;;;;;;;;;;;;;;;23.31;56.69;95310.66;5092370;28;20477;-72
2022/09/07 03:46:18;;;;;;;;;;;;;;;23.27;56.67;95309.84;5075499;28;20037;-73
2022/09/07 03:48:44;;;;;;;;;;;;;;;23.34;56.46;95316.09;5093223;28;20066;-73
2022/09/07 03:51:10;;;;;;;;;;;;;;;23.32;56.92;95310.25;5092051;28;20143;-72
2022/09/07 03:53:40;;;;;;;;;;;;;;;23.38;56.76;95307.16;5092314;28;20056;-72
2022/09/07 03:56:07;;;;;;;;;;;;;;;23.40;56.31;95302.16;5093377;28;20013;-73
2022/09/07 03:58:32;;;;;;;;;;;;;;;23.43;56.21;95309.50;5071426;28;20020;-72
2022/09/07 04:00:59;;;;;;;;;;;;;;;23.44;56.38;95325.44;5072908;28;20009;-73
2022/09/07 04:03:24;;;;;;;;;;;;;;;23.44;56.47;95316.50;5084497;28;20401;-73
2022/09/07 04:05:49;;;;;;;;;;;;;;;23.41;56.41;95326.19;5075232;28;20011;-72
2022/09/07 04:08:15;;;;;;;;;;;;;;;23.46;56.49;95327.75;5092831;28;20031;-72
2022/09/07 04:10:40;;;;;;;;;;;;;;;23.47;56.24;95318.47;5093405;28;20015;-72
2022/09/07 04:13:05;;;;;;;;;;;;;;;23.50;56.30;95317.72;5089340;28;20005;-72
2022/09/07 04:15:31;;;;;;;;;;;;;;;23.52;56.30;95320.81;5092914;28;20009;-72
2022/09/07 04:17:56;;;;;;;;;;;;;;;23.55;56.45;95318.09;5074966;28;20457;-72
2022/09/07 04:20:22;;;;;;;;;;;;;;;23.58;56.44;95317.31;5108399;28;20009;-73
2022/09/07 04:22:47;;;;;;;;;;;;;;;23.46;56.51;95325.06;5092067;28;20020;-72
2022/09/07 04:25:13;;;;;;;;;;;;;;;23.50;56.51;95328.56;5092620;28;20001;-73
2022/09/07 04:27:38;;;;;;;;;;;;;;;23.56;56.19;95327.03;5092735;28;20009;-73
2022/09/07 04:30:04;;;;;;;;;;;;;;;23.58;56.43;95327.41;5074528;28;20009;-72
2022/09/07 04:32:29;;;;;;;;;;;;;;;23.66;56.06;95331.75;5092220;28;20103;-72
2022/09/07 04:34:54;;;;;;;;;;;;;;;23.64;56.46;95331.34;5092358;28;20005;-75
2022/09/07 04:37:20;;;;;;;;;;;;;;;23.73;56.20;95330.97;5072455;28;20059;-76
2022/09/07 04:39:45;;;;;;;;;;;;;;;23.82;55.58;95337.63;5072541;28;20019;-73
2022/09/07 04:42:10;;;;;;;;;;;;;;;23.88;55.38;95332.56;5074271;28;20495;-68
2022/09/07 04:44:36;;;;;;;;;;;;;;;23.98;55.43;95329.09;5091697;28;20078;-76
2022/09/07 04:47:01;;;;;;;;;;;;;;;24.00;55.49;95328.72;5092266;28;20465;-75
2022/09/07 04:49:26;;;;;;;;;;;;;;;24.05;54.98;95318.22;5074375;28;20013;-76
2022/09/07 04:51:51;;;;;;;;;;;;;;;23.95;55.13;95331.81;5090748;28;20104;-75
2022/09/07 04:54:17;;;;;;;;;;;;;;;23.94;55.41;95333.75;5073452;28;20115;-77
2022/09/07 04:56:42;;;;;;;;;;;;;;;23.90;55.26;95327.53;5092521;28;20005;-76
2022/09/07 04:59:07;;;;;;;;;;;;;;;23.99;55.13;95333.38;5092473;28;20013;-76
2022/09/07 05:01:33;;;;;;;;;;;;;;;24.01;55.03;95331.06;5090897;28;20013;-76
2022/09/07 05:03:59;;;;;;;;;;;;;;;24.05;55.31;95336.47;5092097;28;20183;-76
2022/09/07 05:06:25;;;;;;;;;;;;;;;24.04;55.26;95330.28;5091941;28;20376;-76
2022/09/07 05:08:51;;;;;;;;;;;;;;;24.05;54.79;95336.47;5090933;28;20013;-76
2022/09/07 05:11:18;;;;;;;;;;;;;;;24.11;54.71;95332.25;5092489;28;20005;-76
2022/09/07 05:13:43;;;;;;;;;;;;;;;24.20;54.77;95332.63;5073460;28;20013;-76
2022/09/07 05:16:19;;;;;;;;;;;;;;;24.37;54.12;95337.34;5071928;28;20020;-76
2022/09/07 05:18:48;;;;;;;;;;;;;;;24.47;54.06;95332.31;5091478;28;20016;-76
2022/09/07 05:21:14;;;;;;;;;;;;;;;24.54;53.62;95332.28;5073272;28;20062;-77
2022/09/07 05:23:40;;;;;;;;;;;;;;;24.65;53.19;95335.78;5090593;28;20013;-76
2022/09/07 05:26:06;;;;;;;;;;;;;;;24.59;53.30;95343.56;5092236;28;20373;-75
2022/09/07 05:28:31;;;;;;;;;;;;;;;24.63;53.10;95344.34;5091190;28;20023;-76
2022/09/07 05:31:08;;;;;;;;;;;;;;;24.69;52.77;95344.72;5088945;28;20099;-76
2022/09/07 05:33:33;;;;;;;;;;;;;;;24.56;52.58;95354.41;5072314;28;20052;-76
2022/09/07 05:35:59;;;;;;;;;;;;;;;24.45;52.40;95364.53;5092100;28;20060;-76
2022/09/07 05:38:24;;;;;;;;;;;;;;;23.78;53.57;95366.69;5073302;28;20020;-76
2022/09/07 05:40:50;;;;;;;;;;;;;;;24.02;53.26;95370.66;5091910;28;20021;-77
2022/09/07 05:43:15;;;;;;;;;;;;;;;24.19;53.52;95374.56;5073125;28;20519;-76
2022/09/07 05:45:40;;;;;;;;;;;;;;;24.36;53.41;95378.50;5090187;28;20023;-75
2022/09/07 05:48:06;;;;;;;;;;;;;;;24.49;53.14;95368.81;5090564;28;20509;-76
2022/09/07 05:50:31;;;;;;;;;;;;;;;24.61;53.00;95375.78;5076447;28;20389;-76
2022/09/07 05:52:57;;;;;;;;;;;;;;;24.73;53.00;95375.41;5073114;28;20469;-76
2022/09/07 05:55:23;;;;;;;;;;;;;;;24.78;52.78;95377.75;5072986;28;20401;-76
2022/09/07 05:57:48;;;;;;;;;;;;;;;24.87;52.45;95375.38;5090484;28;20086;-76
2022/09/07 06:00:14;;;;;;;;;;;;;;;24.83;52.01;95362.97;5093112;28;20476;-77
2022/09/07 06:02:39;;;;;;;;;;;;;;;25.06;51.70;95387.84;5072452;28;20017;-76
2022/09/07 06:05:05;;;;;;;;;;;;;;;25.03;51.18;95387.81;5071738;28;20504;-75
2022/09/07 06:07:30;;;;;;;;;;;;;;;24.91;51.25;95402.59;5091274;28;20504;-76
2022/09/07 06:09:55;;;;;;;;;;;;;;;25.02;51.17;95397.16;5072053;28;20067;-76
2022/09/07 06:12:21;;;;;;;;;;;;;;;25.21;51.20;95404.94;5106281;28;20472;-75
2022/09/07 06:14:46;;;;;;;;;;;;;;;25.32;49.89;95405.69;5070840;28;20032;-76
2022/09/07 06:17:11;;;;;;;;;;;;;;;25.38;49.84;95404.09;5089263;28;20013;-76
2022/09/07 06:19:37;;;;;;;;;;;;;;;25.56;49.69;95409.53;5072456;28;20426;-76
2022/09/07 06:22:03;;;;;;;;;;;;;;;25.36;50.36;95411.13;5097521;28;20020;-77
2022/09/07 06:24:28;;;;;;;;;;;;;;;24.48;53.23;95418.91;5102480;28;20009;-77
2022/09/07 06:26:54;;;;;;;;;;;;;;;23.90;54.35;95416.41;5071926;28;20009;-75
2022/09/07 06:29:19;;;;;;;;;;;;;;;24.72;52.14;95416.59;5071280;28;20465;-73
2022/09/07 06:31:44;;;;;;;;;;;;;;;24.83;51.85;95422.84;5070523;28;20369;-73
2022/09/07 06:34:10;;;;;;;;;;;;;;;25.06;51.42;95427.88;5090058;28;20008;-73
2022/09/07 06:36:35;;;;;;;;;;;;;;;24.05;54.22;95434.31;5088214;28;20016;-73
2022/09/07 06:39:00;;;;;;;;;;;;;;;25.02;51.47;95430.56;5088223;28;21229;-74
2022/09/07 06:41:27;;;;;;;;;;;;;;;25.51;50.53;95422.78;5065619;28;20011;-73
2022/09/07 06:43:53;;;;;;;;;;;;;;;25.75;50.17;95427.41;5079695;28;20013;-74
2022/09/07 06:46:19;;;;;;;;;;;;;;;25.69;49.99;95426.19;5075371;28;20024;-69
2022/09/07 06:48:44;;;;;;;;;;;;;;;25.34;50.63;95427.88;5069907;28;20017;-74
2022/09/07 06:51:18;;;;;;;;;;;;;;;25.66;50.46;95427.78;5090540;28;20013;-74
2022/09/07 06:53:44;;;;;;;;;;;;;;;25.92;50.21;95432.00;5071627;28;20015;-74
2022/09/07 06:56:11;;;;;;;;;;;;;;;26.08;49.82;95430.75;5088594;28;20013;-71
2022/09/07 06:58:36;;;;;;;;;;;;;;;26.08;48.75;95425.31;5090060;28;20016;-71
2022/09/07 07:01:06;;;;;;;;;;;;;;;26.47;48.05;95424.34;5088680;28;20009;-71
2022/09/07 07:03:31;;;;;;;;;;;;;;;26.61;48.49;95427.72;5088740;28;20017;-71
2022/09/07 07:05:56;;;;;;;;;;;;;;;26.69;48.06;95426.50;5089621;28;20019;-71
2022/09/07 07:08:23;;;;;;;;;;;;;;;26.70;47.73;95436.25;5090136;28;20103;-69
2022/09/07 07:10:49;;;;;;;;;;;;;;;26.86;47.35;95432.22;5106027;28;20495;-70
2022/09/07 07:13:14;;;;;;;;;;;;;;;26.96;47.23;95437.59;5089675;28;20005;-70
2022/09/07 07:15:40;;;;;;;;;;;;;;;27.07;47.33;95437.53;5089090;28;20329;-70
2022/09/07 07:18:05;;;;;;;;;;;;;;;27.09;47.15;95439.88;5070950;28;20020;-70
2022/09/07 07:20:31;;;;;;;;;;;;;;;27.20;46.97;95437.84;5090431;28;20012;-70
2022/09/07 07:22:56;;;;;;;;;;;;;;;27.32;46.49;95437.31;5089776;28;20009;-70
2022/09/07 07:25:22;;;;;;;;;;;;;;;27.63;45.30;95440.91;5090211;28;20013;-71
2022/09/07 07:27:47;;;;;;;;;;;;;;;28.19;44.27;95441.44;5089933;28;20005;-69
2022/09/07 07:30:13;;;;;;;;;;;;;;;28.61;44.03;95449.50;5088574;28;20803;-70
2022/09/07 07:32:39;;;;;;;;;;;;;;;28.92;42.10;95437.31;5088920;28;20020;-70
2022/09/07 07:35:06;;;;;;;;;;;;;;;29.23;40.72;95442.72;5089817;28;20565;-71
2022/09/07 07:37:31;;;;;;;;;;;;;;;29.38;40.56;95452.22;5089147;28;20013;-70
2022/09/07 07:39:56;;;;;;;;;;;;;;;28.92;40.31;95455.69;5088055;28;20020;-69
2022/09/07 07:42:23;;;;;;;;;;;;;;;29.31;40.28;95444.13;5086748;28;20228;-70
2022/09/07 07:44:48;;;;;;;;;;;;;;;29.38;39.94;95445.94;5088534;28;20017;-69
2022/09/07 07:47:14;;;;;;;;;;;;;;;29.40;39.32;95449.06;5088413;28;20016;-70
2022/09/07 07:49:39;;;;;;;;;;;;;;;28.76;40.84;95448.88;5091703;28;20027;-70
2022/09/07 07:52:05;;;;;;;;;;;;;;;29.11;39.87;95446.03;5090420;28;20016;-71
2022/09/07 07:54:35;;;;;;;;;;;;;;;29.26;40.34;95447.34;5090738;28;20550;-69
2022/09/07 07:57:01;;;;;;;;;;;;;;;29.13;40.04;95454.63;5089718;28;20013;-70
2022/09/07 07:59:26;;;;;;;;;;;;;;;29.42;40.44;95449.41;5092398;28;20016;-70
2022/09/07 08:01:51;;;;;;;;;;;;;;;28.98;39.13;95451.31;5092349;28;20016;-70
2022/09/07 08:04:17;;;;;;;;;;;;;;;28.49;40.68;95451.63;5090936;28;20009;-70
2022/09/07 08:06:42;;;;;;;;;;;;;;;29.11;40.01;95440.53;5091373;28;20016;-70
2022/09/07 08:09:08;;;;;;;;;;;;;;;29.39;39.72;95440.06;5091988;28;20103;-70
2022/09/07 08:11:34;;;;;;;;;;;;;;;29.43;39.40;95435.31;5090263;28;20048;-70
2022/09/07 08:14:01;;;;;;;;;;;;;;;29.37;39.43;95436.94;5091287;28;20016;-71
2022/09/07 08:16:26;;;;;;;;;;;;;;;29.18;39.58;95435.72;5091119;28;20069;-71
2022/09/07 08:18:52;;;;;;;;;;;;;;;28.23;41.23;95444.91;5091090;28;20009;-70
2022/09/07 08:21:18;;;;;;;;;;;;;;;28.88;40.52;95447.53;5090918;28;20067;-70
2022/09/07 08:23:43;;;;;;;;;;;;;;;29.14;39.68;95442.47;5090061;28;20657;-70
2022/09/07 08:26:09;;;;;;;;;;;;;;;29.27;39.82;95437.91;5091697;28;20013;-71
2022/09/07 08:28:35;;;;;;;;;;;;;;;29.39;39.95;95436.56;5091097;28;20060;-71
2022/09/07 08:31:07;;;;;;;;;;;;;;;29.44;39.21;95433.34;5088319;28;20013;-71
2022/09/07 08:33:36;;;;;;;;;;;;;;;29.85;39.07;95430.22;5090759;28;20067;-70
2022/09/07 08:36:02;;;;;;;;;;;;;;;28.93;39.36;95432.59;5089563;28;20013;-70
2022/09/07 08:38:29;;;;;;;;;;;;;;;28.63;40.57;95433.47;5092128;28;20005;-71
2022/09/07 08:40:55;;;;;;;;;;;;;;;29.40;39.62;95427.91;5091642;28;20020;-71
2022/09/07 08:43:20;;;;;;;;;;;;;;;29.66;39.08;95425.50;5090820;28;20354;-72
2022/09/07 08:45:47;;;;;;;;;;;;;;;29.03;39.09;95423.47;5073291;28;20028;-71
2022/09/07 08:48:15;;;;;;;;;;;;;;;28.27;41.06;95431.19;5092217;28;20086;-70
2022/09/07 08:50:50;;;;;;;;;;;;;;;29.30;39.16;95426.13;5092225;28;20071;-70
2022/09/07 08:53:18;;;;;;;;;;;;;;;28.16;41.11;95430.56;5091070;28;20009;-71
2022/09/07 08:56:19;;;;;;;;;;;;;;;28.90;39.82;95423.25;5091951;28;20380;-71
2022/09/07 08:58:48;;;;;;;;;;;;;;;30.17;37.91;95421.38;5022297;28;20014;-70
2022/09/07 09:01:25;;;;;;;;;;;;;;;28.61;39.89;95419.41;5075273;28;20017;-71
2022/09/07 09:03:51;;;;;;;;;;;;;;;28.73;40.51;95416.09;5090008;28;20065;-71
2022/09/07 09:06:17;;;;;;;;;;;;;;;29.50;39.39;95410.50;5089219;28;20112;-70
2022/09/07 09:08:48;;;;;;;;;;;;;;;30.10;38.65;95418.75;5090311;28;20009;-71
2022/09/07 09:11:19;;;;;;;;;;;;;;;30.04;38.07;95421.19;5087326;28;20052;-70
2022/09/07 09:14:17;;;;;;;;;;;;;;;27.24;42.15;95424.94;5089983;28;20020;-75
2022/09/07 09:16:45;;;;;;;;;;;;;;;28.75;40.35;95410.97;5057064;28;20036;-74
2022/09/07 09:19:11;;;;;;;;;;;;;;;28.23;41.44;95414.06;5084276;28;20019;-74
2022/09/07 09:21:36;;;;;;;;;;;;;;;27.18;42.75;95415.63;5083158;28;20389;-78
2022/09/07 09:24:10;;;;;;;;;;;;;;;28.23;41.01;95416.78;5073722;28;20090;-78
2022/09/07 09:26:37;;;;;;;;;;;;;;;28.74;40.20;95409.44;5073812;28;20013;-78
2022/09/07 09:29:13;;;;;;;;;;;;;;;29.28;39.34;95406.59;5091485;28;20435;-73
2022/09/07 09:31:38;;;;;;;;;;;;;;;29.43;38.23;95404.34;5072783;28;20020;-74
2022/09/07 09:34:14;;;;;;;;;;;;;;;28.95;38.87;95395.41;5088588;28;20013;-74
2022/09/07 09:36:46;;;;;;;;;;;;;;;28.44;37.69;95402.06;5073447;28;20012;-76
2022/09/07 09:39:32;;;;;;;;;;;;;;;28.76;37.82;95388.66;5069983;28;20441;-78
2022/09/07 09:42:00;;;;;;;;;;;;;;;28.10;38.51;95394.69;5076744;28;20017;-78
2022/09/07 09:44:29;;;;;;;;;;;;;;;27.57;39.84;95390.63;5069208;28;20013;-77
2022/09/07 09:46:55;;;;;;;;;;;;;;;27.94;39.63;95398.00;5099903;28;20063;-75
2022/09/07 09:49:26;;;;;;;;;;;;;;;28.98;38.36;95391.09;5107015;28;20016;-73
2022/09/07 09:51:55;;;;;;;;;;;;;;;27.71;39.96;95403.38;5090268;28;20013;-74
2022/09/07 09:54:32;;;;;;;;;;;;;;;28.07;39.49;95406.44;5089515;28;20012;-74
2022/09/07 09:56:57;;;;;;;;;;;;;;;27.58;40.40;95400.34;5056179;28;20015;-73
2022/09/07 09:59:26;;;;;;;;;;;;;;;27.07;41.74;95393.06;5091943;28;20008;-74
2022/09/07 10:01:52;;;;;;;;;;;;;;;28.46;38.91;95391.50;5089181;28;20012;-74
2022/09/07 10:04:17;;;;;;;;;;;;;;;29.34;38.35;95388.50;5071103;28;20066;-74
2022/09/07 10:06:50;;;;;;;;;;;;;;;28.64;39.06;95399.41;5088990;28;20016;-74
2022/09/07 10:09:18;;;;;;;;;;;;;;;28.43;39.08;95400.50;5093185;28;20009;-74
2022/09/07 10:11:57;;;;;;;;;;;;;;;29.55;37.35;95394.78;5088823;28;20118;-74
2022/09/07 10:14:26;;;;;;;;;;;;;;;28.43;39.00;95397.78;5089094;28;20064;-75
2022/09/07 10:16:51;;;;;;;;;;;;;;;28.01;40.68;95388.97;5088387;28;20066;-74
2022/09/07 10:19:26;;;;;;;;;;;;;;;29.35;38.34;95392.00;5088631;28;20013;-75
2022/09/07 10:22:00;;;;;;;;;;;;;;;29.12;37.87;95385.34;5090639;28;20012;-75
2022/09/07 10:24:29;;;;;;;;;;;;;;;28.85;38.43;95390.88;5090613;28;20438;-75
2022/09/07 10:26:54;;;;;;;;;;;;;;;28.61;39.10;95397.50;5091349;28;20066;-74
2022/09/07 10:29:26;;;;;;;;;;;;;;;27.93;41.16;95401.94;5072767;28;20009;-77
2022/09/07 10:31:57;;;;;;;;;;;;;;;29.38;38.67;95391.13;5071554;28;20103;-74
2022/09/07 10:34:22;;;;;;;;;;;;;;;30.11;37.39;95392.09;5071745;28;20010;-73
2022/09/07 10:36:55;;;;;;;;;;;;;;;30.40;36.47;95389.50;5090704;28;20009;-73
2022/09/07 10:39:32;;;;;;;;;;;;;;;28.66;39.36;95388.81;5090933;28;20009;-72
2022/09/07 10:42:04;;;;;;;;;;;;;;;29.88;37.40;95381.97;5080762;28;20142;-73
2022/09/07 10:44:35;;;;;;;;;;;;;;;29.93;37.57;95381.47;5065733;28;20472;-74
2022/09/07 10:47:11;;;;;;;;;;;;;;;29.50;37.91;95374.88;5089795;28;20017;-74
2022/09/07 10:49:45;;;;;;;;;;;;;;;29.45;37.80;95374.59;5089596;28;20062;-73
2022/09/07 10:52:21;;;;;;;;;;;;;;;29.48;38.20;95370.97;5089770;28;20036;-73
2022/09/07 10:54:55;;;;;;;;;;;;;;;29.39;39.65;95363.34;5090564;28;20009;-74
2022/09/07 10:57:31;;;;;;;;;;;;;;;28.66;40.46;95361.44;5087249;28;20009;-73
2022/09/07 11:00:15;;;;;;;;;;;;;;;28.95;39.42;95357.09;5089925;28;20004;-73
2022/09/07 11:02:49;;;;;;;;;;;;;;;29.60;38.58;95343.00;5088693;28;20070;-73
2022/09/07 11:05:14;;;;;;;;;;;;;;;30.07;37.38;95339.28;5089608;28;20004;-73
2022/09/07 11:07:55;;;;;;;;;;;;;;;29.74;38.09;95339.19;5088848;28;20026;-70
2022/09/07 11:10:20;;;;;;;;;;;;;;;29.65;38.72;95337.00;5093247;28;20388;-70
2022/09/07 11:12:47;;;;;;;;;;;;;;;29.43;39.10;95338.59;5096778;28;20013;-73
2022/09/07 11:15:13;;;;;;;;;;;;;;;29.31;39.07;95334.53;5076541;28;20008;-72
2022/09/07 11:17:46;;;;;;;;;;;;;;;29.79;38.41;95335.94;5072187;28;20013;-78
2022/09/07 11:20:28;;;;;;;;;;;;;;;30.00;38.43;95334.72;5072234;28;20884;-73
2022/09/07 11:23:00;;;;;;;;;;;;;;;29.15;39.83;95331.69;5072832;28;20063;-71
2022/09/07 11:25:28;;;;;;;;;;;;;;;29.72;38.81;95325.13;5093974;28;20049;-73
2022/09/07 11:28:02;;;;;;;;;;;;;;;29.83;38.94;95314.69;5094460;28;20005;-76
2022/09/07 11:30:33;;;;;;;;;;;;;;;30.12;38.60;95309.38;5091840;28;20013;-71
2022/09/07 11:33:06;;;;;;;;;;;;;;;30.21;39.31;95312.31;5074826;28;20059;-70
2022/09/07 11:35:38;;;;;;;;;;;;;;;30.32;39.07;95309.31;5094376;28;20024;-77
2022/09/07 11:38:13;;;;;;;;;;;;;;;30.45;38.63;95304.69;5091880;28;20104;-72
2022/09/07 11:40:43;;;;;;;;;;;;;;;30.33;38.80;95304.59;5093275;28;20440;-75
2022/09/07 11:43:28;;;;;;;;;;;;;;;30.20;38.78;95312.72;5099511;28;20082;-75
2022/09/07 11:45:56;;;;;;;;;;;;;;;30.17;38.20;95311.63;5109955;28;20049;-75
2022/09/07 11:48:38;;;;;;;;;;;;;;;30.19;38.48;95300.22;5092657;28;20016;-76
2022/09/07 11:51:14;;;;;;;;;;;;;;;30.28;38.94;95290.19;5094341;28;20489;-76
2022/09/07 11:53:43;;;;;;;;;;;;;;;30.77;37.28;95295.69;5093094;28;20012;-76
2022/09/07 11:56:17;;;;;;;;;;;;;;;30.49;37.71;95310.84;5093980;28;20408;-76
2022/09/07 11:59:02;;;;;;;;;;;;;;;31.24;37.63;95297.97;5076239;28;20008;-76
2022/09/07 12:01:44;;;;;;;;;;;;;;;31.76;36.07;95294.16;5075989;28;20017;-76
2022/09/07 12:04:28;;;;;;;;;;;;;;;31.64;36.13;95307.91;5074310;28;20012;-73
2022/09/07 12:06:53;;;;;;;;;;;;;;;30.59;38.59;95289.84;5075099;28;20802;-73
2022/09/07 12:09:37;;;;;;;;;;;;;;;31.43;37.04;95288.06;5092447;28;20013;-72
2022/09/07 12:12:03;;;;;;;;;;;;;;;29.15;39.67;95285.91;5074046;28;20120;-71
2022/09/07 12:14:28;;;;;;;;;;;;;;;30.18;39.27;95280.25;5074152;28;20075;-72
2022/09/07 12:17:00;;;;;;;;;;;;;;;30.69;38.14;95293.53;5073233;28;20529;-72
2022/09/07 12:19:26;;;;;;;;;;;;;;;31.10;37.70;95284.63;5068361;28;20029;-70
2022/09/07 12:21:52;;;;;;;;;;;;;;;31.33;36.63;95285.63;5072816;28;20370;-72
2022/09/07 12:24:35;;;;;;;;;;;;;;;30.84;36.87;95283.75;5091057;28;20099;-72
2022/09/07 12:27:01;;;;;;;;;;;;;;;30.55;37.29;95283.66;5074622;28;20013;-73
2022/09/07 12:29:27;;;;;;;;;;;;;;;30.49;37.27;95277.16;5108634;28;20098;-72
2022/09/07 12:31:57;;;;;;;;;;;;;;;29.87;37.75;95279.75;5091201;28;20068;-71
2022/09/07 12:34:28;;;;;;;;;;;;;;;30.64;36.14;95272.09;5101180;28;20380;-72
2022/09/07 12:36:53;;;;;;;;;;;;;;;29.66;37.90;95278.25;5092796;28;20005;-72
2022/09/07 12:39:27;;;;;;;;;;;;;;;29.67;37.48;95268.81;5091835;28;20024;-71
2022/09/07 12:42:04;;;;;;;;;;;;;;;30.52;36.30;95265.31;5073939;28;20504;-72
2022/09/07 12:44:30;;;;;;;;;;;;;;;30.85;35.57;95265.28;5074432;28;20427;-72
2022/09/07 12:46:57;;;;;;;;;;;;;;;29.20;38.41;95262.72;5092573;28;20516;-76
2022/09/07 12:49:26;;;;;;;;;;;;;;;28.94;40.22;95264.41;5073821;28;20017;-76
2022/09/07 12:52:01;;;;;;;;;;;;;;;29.51;37.42;95261.28;5092270;28;20530;-77
2022/09/07 12:54:29;;;;;;;;;;;;;;;29.62;37.50;95255.63;5091583;28;20013;-77